createdAt,value
2023-03-29T00:00:41.883Z,4.00
2023-03-29T00:03:16.975Z,3.90
2023-03-29T00:05:51.305Z,4.27
2023-03-29T00:08:23.545Z,4.02
2023-03-29T00:10:57.023Z,4.13
2023-03-29T00:13:29.882Z,4.02
2023-03-29T00:16:02.163Z,4.43
2023-03-29T00:18:36.964Z,4.27
2023-03-29T00:21:09.850Z,4.04
2023-03-29T00:23:42.136Z,4.22
2023-03-29T00:26:14.585Z,4.16
2023-03-29T00:28:46.896Z,4.26
2023-03-29T00:31:21.498Z,4.26
2023-03-29T00:33:57.005Z,4.31
2023-03-29T00:36:29.310Z,4.19
2023-03-29T00:39:01.533Z,4.49
2023-03-29T00:41:33.715Z,4.30
2023-03-29T00:44:08.418Z,4.37
2023-03-29T00:46:40.872Z,4.45
2023-03-29T00:49:17.269Z,4.31
2023-03-29T00:51:50.688Z,4.26
2023-03-29T00:54:23.440Z,4.58
2023-03-29T00:56:55.969Z,4.40
2023-03-29T00:59:32.990Z,4.52
2023-03-29T01:02:09.606Z,4.46
2023-03-29T01:04:51.625Z,4.42
2023-03-29T01:07:30.935Z,4.30
2023-03-29T01:10:09.407Z,4.36
2023-03-29T01:12:48.115Z,4.19
2023-03-29T01:15:26.741Z,4.49
2023-03-29T01:18:02.153Z,4.21
2023-03-29T01:21:05.248Z,4.38
2023-03-29T01:23:53.924Z,4.08
2023-03-29T01:26:35.151Z,4.41
2023-03-29T01:29:16.782Z,4.36
2023-03-29T01:31:56.394Z,4.41
2023-03-29T01:34:37.745Z,4.39
2023-03-29T01:37:17.840Z,4.52
2023-03-29T01:39:50.826Z,4.46
2023-03-29T01:42:39.625Z,4.57
2023-03-29T01:45:26.667Z,4.69
2023-03-29T01:48:06.423Z,4.68
2023-03-29T01:50:48.064Z,4.69
2023-03-29T01:53:27.352Z,4.66
2023-03-29T01:56:05.848Z,4.43
2023-03-29T01:58:44.886Z,4.72
2023-03-29T02:01:26.675Z,4.82
2023-03-29T02:04:05.681Z,4.85
2023-03-29T02:06:41.678Z,4.63
2023-03-29T02:09:15.067Z,4.75
2023-03-29T02:11:50.101Z,4.55
2023-03-29T02:14:22.290Z,4.63
2023-03-29T02:16:57.229Z,4.83
2023-03-29T02:19:30.343Z,5.05
2023-03-29T02:22:09.762Z,4.71
2023-03-29T02:24:46.121Z,4.62
2023-03-29T02:27:18.558Z,4.60
2023-03-29T02:29:51.035Z,4.81
2023-03-29T02:32:32.283Z,4.90
2023-03-29T02:35:13.155Z,4.83
2023-03-29T02:37:51.453Z,5.19
2023-03-29T02:40:26.200Z,5.29
2023-03-29T02:43:01.516Z,5.14
2023-03-29T02:45:35.830Z,5.29
2023-03-29T02:48:16.394Z,5.12
2023-03-29T02:50:54.170Z,5.06
2023-03-29T02:53:32.290Z,5.34
2023-03-29T02:56:05.212Z,5.37
2023-03-29T02:58:37.430Z,5.39
2023-03-29T03:01:11.660Z,5.16
2023-03-29T03:03:46.714Z,5.37
2023-03-29T03:06:19.172Z,5.40
2023-03-29T03:08:51.494Z,5.37
2023-03-29T03:11:24.149Z,5.48
2023-03-29T03:13:56.596Z,5.30
2023-03-29T03:16:29.209Z,5.70
2023-03-29T03:19:04.445Z,5.30
2023-03-29T03:21:37.859Z,5.43
2023-03-29T03:24:10.780Z,5.48
2023-03-29T03:26:43.003Z,5.76
2023-03-29T03:29:15.705Z,5.44
2023-03-29T03:31:48.031Z,5.39
2023-03-29T03:34:22.885Z,5.26
2023-03-29T03:36:55.650Z,5.44
2023-03-29T03:39:27.983Z,5.68
2023-03-29T03:42:00.127Z,5.58
2023-03-29T03:44:32.475Z,5.55
2023-03-29T03:47:04.712Z,5.61
2023-03-29T03:49:39.879Z,5.48
2023-03-29T03:52:12.837Z,5.59
2023-03-29T03:54:46.781Z,5.57
2023-03-29T03:57:19.021Z,5.59
2023-03-29T03:59:51.441Z,5.47
2023-03-29T04:02:23.966Z,5.54
2023-03-29T04:05:03.231Z,5.73
2023-03-29T04:07:36.006Z,5.90
2023-03-29T04:10:09.842Z,5.74
2023-03-29T04:12:43.072Z,5.87
2023-03-29T04:15:17.923Z,5.22
2023-03-29T04:17:50.198Z,5.54
2023-03-29T04:20:25.209Z,5.43
2023-03-29T04:22:58.207Z,5.55
2023-03-29T04:25:30.568Z,5.59
2023-03-29T04:28:02.804Z,5.71
2023-03-29T04:30:35.459Z,5.61
2023-03-29T04:33:07.886Z,5.59
2023-03-29T04:35:42.869Z,5.69
2023-03-29T04:38:15.140Z,5.65
2023-03-29T04:40:48.729Z,5.66
2023-03-29T04:43:22.754Z,5.36
2023-03-29T04:45:55.461Z,5.77
2023-03-29T04:48:28.691Z,5.34
2023-03-29T04:51:03.597Z,5.36
2023-03-29T04:53:36.078Z,5.47
2023-03-29T04:56:09.152Z,5.67
2023-03-29T04:58:42.408Z,5.45
2023-03-29T05:01:14.675Z,5.38
2023-03-29T05:03:46.977Z,5.54
2023-03-29T05:06:22.323Z,5.76
2023-03-29T05:08:54.712Z,5.72
2023-03-29T05:11:27.798Z,5.84
2023-03-29T05:14:02.667Z,5.63
2023-03-29T05:16:35.825Z,5.71
2023-03-29T05:19:09.379Z,5.74
2023-03-29T05:21:45.684Z,5.89
2023-03-29T05:24:18.080Z,5.74
2023-03-29T05:26:52.003Z,5.66
2023-03-29T05:29:24.457Z,5.56
2023-03-29T05:31:56.858Z,5.61
2023-03-29T05:34:29.913Z,5.76
2023-03-29T05:37:04.719Z,5.79
2023-03-29T05:39:37.884Z,5.81
2023-03-29T05:42:12.449Z,5.89
2023-03-29T05:44:45.416Z,6.03
2023-03-29T05:47:17.635Z,5.75
2023-03-29T05:49:50.010Z,5.76
2023-03-29T05:52:24.767Z,5.86
2023-03-29T05:54:57.197Z,6.12
2023-03-29T05:57:29.508Z,5.89
2023-03-29T06:00:02.204Z,5.86
2023-03-29T06:02:35.173Z,6.02
2023-03-29T06:05:07.959Z,5.96
2023-03-29T06:07:42.816Z,6.16
2023-03-29T06:10:15.904Z,6.12
2023-03-29T06:12:49.663Z,6.09
2023-03-29T06:15:23.405Z,6.31
2023-03-29T06:17:55.617Z,6.26
2023-03-29T06:20:27.899Z,6.22
2023-03-29T06:23:02.929Z,6.22
2023-03-29T06:25:35.476Z,6.18
2023-03-29T06:28:07.901Z,6.35
2023-03-29T06:30:40.233Z,6.01
2023-03-29T06:33:12.563Z,6.16
2023-03-29T06:35:48.222Z,6.29
2023-03-29T06:38:23.565Z,6.50
2023-03-29T06:40:55.905Z,6.53
2023-03-29T06:43:28.133Z,6.85
2023-03-29T06:46:00.619Z,6.56
2023-03-29T06:48:33.391Z,7.04
2023-03-29T06:51:05.865Z,6.79
2023-03-29T06:53:40.667Z,7.19
2023-03-29T06:56:14.742Z,6.96
2023-03-29T06:58:48.702Z,7.29
2023-03-29T07:01:21.879Z,7.67
2023-03-29T07:03:54.444Z,7.59
2023-03-29T07:06:26.759Z,7.69
2023-03-29T07:09:02.528Z,7.86
2023-03-29T07:11:35.538Z,7.88
2023-03-29T07:14:08.169Z,7.81
2023-03-29T07:16:40.801Z,7.79
2023-03-29T07:19:13.503Z,7.67
2023-03-29T07:21:46.031Z,7.86
2023-03-29T07:24:21.032Z,7.88
2023-03-29T07:27:03.364Z,7.86
2023-03-29T07:29:37.379Z,7.98
2023-03-29T07:32:09.696Z,8.13
2023-03-29T07:34:43.069Z,8.09
2023-03-29T07:37:15.302Z,7.83
2023-03-29T07:39:51.032Z,8.11
2023-03-29T07:42:23.270Z,8.01
2023-03-29T07:44:55.982Z,8.21
2023-03-29T07:47:28.656Z,8.12
2023-03-29T07:50:01.624Z,8.06
2023-03-29T07:52:33.916Z,8.23
2023-03-29T07:55:10.017Z,8.58
2023-03-29T07:57:43.957Z,8.40
2023-03-29T08:00:19.985Z,8.53
2023-03-29T08:02:55.457Z,8.62
2023-03-29T08:05:40.188Z,9.07
2023-03-29T08:08:14.481Z,8.91
2023-03-29T08:10:49.448Z,8.84
2023-03-29T08:13:21.580Z,8.98
2023-03-29T08:15:54.039Z,9.55
2023-03-29T08:18:26.315Z,9.54
2023-03-29T08:20:58.586Z,9.42
2023-03-29T08:23:30.872Z,9.85
2023-03-29T08:26:06.239Z,10.27
2023-03-29T08:28:38.844Z,10.36
2023-03-29T08:31:13.027Z,10.56
2023-03-29T08:33:45.793Z,10.59
2023-03-29T08:36:18.218Z,10.67
2023-03-29T08:38:51.838Z,10.99
2023-03-29T08:41:42.796Z,10.99
2023-03-29T08:44:32.173Z,11.59
2023-03-29T08:47:18.414Z,10.94
2023-03-29T08:49:55.116Z,10.96
2023-03-29T08:52:36.424Z,11.32
2023-03-29T08:55:17.432Z,11.24
2023-03-29T08:57:55.670Z,11.11
2023-03-29T09:00:40.310Z,11.40
2023-03-29T09:03:21.412Z,11.72
2023-03-29T09:06:01.728Z,11.14
2023-03-29T09:08:34.913Z,11.61
2023-03-29T09:11:26.795Z,11.87
2023-03-29T09:14:16.609Z,11.32
2023-03-29T09:17:00.828Z,11.74
2023-03-29T09:19:43.254Z,11.66
2023-03-29T09:22:26.824Z,11.88
2023-03-29T09:25:12.675Z,11.96
2023-03-29T09:27:53.832Z,12.67
2023-03-29T09:30:38.686Z,12.26
2023-03-29T09:33:21.177Z,11.79
2023-03-29T09:36:01.428Z,12.44
2023-03-29T09:38:35.401Z,12.14
2023-03-29T09:41:21.938Z,12.51
2023-03-29T09:43:56.961Z,12.20
2023-03-29T09:46:43.499Z,12.43
2023-03-29T09:49:24.878Z,12.66
2023-03-29T09:52:05.816Z,12.56
2023-03-29T09:54:38.127Z,12.46
2023-03-29T09:57:12.542Z,13.41
2023-03-29T09:59:45.774Z,14.06
2023-03-29T10:02:24.569Z,13.68
2023-03-29T10:05:01.065Z,14.23
2023-03-29T10:07:45.039Z,13.74
2023-03-29T10:10:27.434Z,14.29
2023-03-29T10:13:07.806Z,13.87
2023-03-29T10:15:40.097Z,14.44
2023-03-29T10:18:18.359Z,14.26
2023-03-29T10:20:50.604Z,13.81
2023-03-29T10:23:23.286Z,14.25
2023-03-29T10:25:56.037Z,14.46
2023-03-29T10:28:28.448Z,15.17
2023-03-29T10:31:04.224Z,15.01
2023-03-29T10:33:41.935Z,14.99
2023-03-29T10:36:18.013Z,15.41
2023-03-29T10:38:51.584Z,16.12
2023-03-29T10:41:27.360Z,16.94
2023-03-29T10:44:00.044Z,18.18
2023-03-29T10:46:36.439Z,18.38
2023-03-29T10:49:23.638Z,18.53
2023-03-29T10:51:57.311Z,17.26
2023-03-29T10:54:29.846Z,17.59
2023-03-29T10:57:08.840Z,17.27
2023-03-29T10:59:53.220Z,17.12
2023-03-29T11:02:58.020Z,17.51
2023-03-29T11:05:43.161Z,17.51
2023-03-29T11:08:31.966Z,17.59
2023-03-29T11:11:20.144Z,17.57
2023-03-29T11:14:02.495Z,17.61
2023-03-29T11:16:45.530Z,17.54
2023-03-29T11:19:56.672Z,17.64
2023-03-29T11:22:42.609Z,17.76
2023-03-29T11:25:32.998Z,17.17
2023-03-29T11:28:17.447Z,17.36
2023-03-29T11:31:00.683Z,18.04
2023-03-29T11:33:44.845Z,17.29
2023-03-29T11:36:25.229Z,17.35
2023-03-29T11:39:15.826Z,17.09
2023-03-29T11:41:53.841Z,17.36
2023-03-29T11:44:32.846Z,17.34
2023-03-29T11:47:11.554Z,16.65
2023-03-29T11:49:52.598Z,16.74
2023-03-29T11:52:33.911Z,16.90
2023-03-29T11:55:16.550Z,16.49
2023-03-29T11:57:56.756Z,17.09
2023-03-29T12:00:36.622Z,16.80
2023-03-29T12:03:19.007Z,17.48
2023-03-29T12:05:56.886Z,18.09
2023-03-29T12:08:34.885Z,19.08
2023-03-29T12:11:20.650Z,20.74
2023-03-29T12:13:59.257Z,22.62
2023-03-29T12:16:39.076Z,22.28
2023-03-29T12:19:22.005Z,22.41
2023-03-29T12:21:57.398Z,22.59
2023-03-29T12:24:35.667Z,21.75
2023-03-29T12:27:28.644Z,22.11
2023-03-29T12:30:34.367Z,21.69
2023-03-29T12:33:28.403Z,21.23
2023-03-29T12:36:19.227Z,22.23
2023-03-29T12:38:55.764Z,21.68
2023-03-29T12:41:29.559Z,23.06
2023-03-29T12:44:10.785Z,23.29
2023-03-29T12:46:45.249Z,23.40
2023-03-29T12:49:26.448Z,23.64
2023-03-29T12:52:03.080Z,22.95
2023-03-29T12:54:37.542Z,23.16
2023-03-29T12:57:29.082Z,23.77
2023-03-29T13:00:22.973Z,23.84
2023-03-29T13:03:05.828Z,24.26
2023-03-29T13:05:39.895Z,24.48
2023-03-29T13:08:25.218Z,24.39
2023-03-29T13:11:00.001Z,24.41
2023-03-29T13:13:37.494Z,24.05
2023-03-29T13:16:19.761Z,23.04
2023-03-29T13:19:07.277Z,22.86
2023-03-29T13:21:54.056Z,22.77
2023-03-29T13:24:53.091Z,21.91
2023-03-29T13:27:39.904Z,22.82
2023-03-29T13:30:33.891Z,22.14
2023-03-29T13:33:25.691Z,23.29
2023-03-29T13:36:11.444Z,24.03
2023-03-29T13:38:52.496Z,24.75
2023-03-29T13:41:35.375Z,24.44
2023-03-29T13:44:08.649Z,24.40
2023-03-29T13:46:43.606Z,25.14
2023-03-29T13:49:27.999Z,24.50
2023-03-29T13:52:19.999Z,25.47
2023-03-29T13:55:00.949Z,24.61
2023-03-29T13:57:42.664Z,24.26
2023-03-29T14:00:22.992Z,23.94
2023-03-29T14:03:01.720Z,23.70
2023-03-29T14:05:42.714Z,23.72
2023-03-29T14:08:25.909Z,23.17
2023-03-29T14:10:59.127Z,23.62
2023-03-29T14:13:32.730Z,22.91
2023-03-29T14:16:09.240Z,23.30
2023-03-29T14:18:46.567Z,22.51
2023-03-29T14:21:23.940Z,23.29
2023-03-29T14:24:02.188Z,23.19
2023-03-29T14:26:36.843Z,22.24
2023-03-29T14:29:10.826Z,22.13
2023-03-29T14:31:45.276Z,22.50
2023-03-29T14:34:19.655Z,21.26
2023-03-29T14:36:55.942Z,20.41
2023-03-29T14:39:28.525Z,20.78
2023-03-29T14:42:01.634Z,21.45
2023-03-29T14:44:37.553Z,20.68
2023-03-29T14:47:10.102Z,20.24
2023-03-29T14:49:42.566Z,20.30
2023-03-29T14:52:19.980Z,20.14
2023-03-29T14:54:57.950Z,20.32
2023-03-29T14:57:36.618Z,20.59
2023-03-29T15:00:24.700Z,20.14
2023-03-29T15:03:00.792Z,19.81
2023-03-29T15:05:44.116Z,19.37
2023-03-29T15:08:27.450Z,18.98
2023-03-29T15:10:59.856Z,18.65
2023-03-29T15:13:33.270Z,17.76
2023-03-29T15:16:08.355Z,17.60
2023-03-29T15:18:44.383Z,17.72
2023-03-29T15:21:21.567Z,17.29
2023-03-29T15:24:01.683Z,17.18
2023-03-29T15:26:36.837Z,16.89
2023-03-29T15:29:17.350Z,15.96
2023-03-29T15:32:02.569Z,14.94
2023-03-29T15:34:38.467Z,14.24
2023-03-29T15:37:11.159Z,14.41
2023-03-29T15:39:48.624Z,14.34
2023-03-29T15:42:21.270Z,14.30
2023-03-29T15:44:57.198Z,13.38
2023-03-29T15:47:29.875Z,12.73
2023-03-29T15:50:02.263Z,12.50
2023-03-29T15:52:34.518Z,12.76
2023-03-29T15:55:10.339Z,12.64
2023-03-29T15:57:43.277Z,12.42
2023-03-29T16:00:20.253Z,12.41
2023-03-29T16:02:52.793Z,12.31
2023-03-29T16:05:25.225Z,11.81
2023-03-29T16:07:57.410Z,11.37
2023-03-29T16:10:32.235Z,11.51
2023-03-29T16:13:04.465Z,10.62
2023-03-29T16:15:37.652Z,10.49
2023-03-29T16:18:10.274Z,10.68
2023-03-29T16:20:42.707Z,11.06
2023-03-29T16:23:14.978Z,11.72
2023-03-29T16:25:49.817Z,11.34
2023-03-29T16:28:22.094Z,10.69
2023-03-29T16:30:54.399Z,11.29
2023-03-29T16:33:27.184Z,11.49
2023-03-29T16:35:59.898Z,11.54
2023-03-29T16:38:34.216Z,10.56
2023-03-29T16:41:10.036Z,10.81
2023-03-29T16:43:42.304Z,11.05
2023-03-29T16:46:15.843Z,10.56
2023-03-29T16:48:49.046Z,10.04
2023-03-29T16:51:21.554Z,10.24
2023-03-29T16:53:54.321Z,10.26
2023-03-29T16:56:29.906Z,10.51
2023-03-29T16:59:02.604Z,10.34
2023-03-29T17:01:34.904Z,11.21
2023-03-29T17:04:07.604Z,11.67
2023-03-29T17:06:39.970Z,11.69
2023-03-29T17:09:12.254Z,10.91
2023-03-29T17:11:47.138Z,10.98
2023-03-29T17:14:19.848Z,11.04
2023-03-29T17:16:52.099Z,10.89
2023-03-29T17:19:24.314Z,11.04
2023-03-29T17:21:57.028Z,11.70
2023-03-29T17:24:29.471Z,11.81
2023-03-29T17:27:04.337Z,12.07
2023-03-29T17:29:36.799Z,12.71
2023-03-29T17:32:09.408Z,13.04
2023-03-29T17:34:41.775Z,13.59
2023-03-29T17:37:14.108Z,13.74
2023-03-29T17:39:46.320Z,15.36
2023-03-29T17:42:21.098Z,13.32
2023-03-29T17:44:53.903Z,11.22
2023-03-29T17:47:26.142Z,11.40
2023-03-29T17:49:58.439Z,12.64
2023-03-29T17:52:31.005Z,12.10
2023-03-29T17:55:03.463Z,11.55
2023-03-29T17:57:38.280Z,12.09
2023-03-29T18:00:13.761Z,13.18
2023-03-29T18:02:46.374Z,12.49
2023-03-29T18:05:18.974Z,11.99
2023-03-29T18:07:51.305Z,11.49
2023-03-29T18:10:23.678Z,12.24
2023-03-29T18:12:58.708Z,12.04
2023-03-29T18:15:31.047Z,14.47
2023-03-29T18:18:03.439Z,13.16
2023-03-29T18:20:36.299Z,13.37
2023-03-29T18:23:08.571Z,14.45
2023-03-29T18:25:41.199Z,15.86
2023-03-29T18:28:16.022Z,16.97
2023-03-29T18:30:48.930Z,15.98
2023-03-29T18:33:21.344Z,14.89
2023-03-29T18:35:54.307Z,14.09
2023-03-29T18:38:27.341Z,14.77
2023-03-29T18:40:59.517Z,14.63
2023-03-29T18:43:37.213Z,14.06
2023-03-29T18:46:09.919Z,14.86
2023-03-29T18:48:42.486Z,15.84
2023-03-29T18:51:16.247Z,16.09
2023-03-29T18:53:48.468Z,14.20
2023-03-29T18:56:20.997Z,13.93
2023-03-29T18:58:56.097Z,14.12
2023-03-29T19:01:28.399Z,13.11
2023-03-29T19:04:00.857Z,13.25
2023-03-29T19:06:33.240Z,12.20
2023-03-29T19:09:06.354Z,12.31
2023-03-29T19:11:38.817Z,12.24
2023-03-29T19:14:13.616Z,12.46
2023-03-29T19:16:46.022Z,11.89
2023-03-29T19:19:18.796Z,12.29
2023-03-29T19:21:51.176Z,12.25
2023-03-29T19:24:24.393Z,12.59
2023-03-29T19:26:56.666Z,12.75
2023-03-29T19:29:31.582Z,12.65
2023-03-29T19:32:03.810Z,12.68
2023-03-29T19:34:36.379Z,12.59
2023-03-29T19:37:08.649Z,13.42
2023-03-29T19:39:41.607Z,12.89
2023-03-29T19:42:15.080Z,11.89
2023-03-29T19:44:50.046Z,11.44
2023-03-29T19:47:22.298Z,11.16
2023-03-29T19:49:54.540Z,11.24
2023-03-29T19:52:28.063Z,11.06
2023-03-29T19:55:01.500Z,11.88
2023-03-29T19:57:34.270Z,11.73
2023-03-29T20:00:10.959Z,12.08
2023-03-29T20:02:43.372Z,12.18
2023-03-29T20:05:16.456Z,14.52
2023-03-29T20:07:48.728Z,12.88
2023-03-29T20:10:21.241Z,14.30
2023-03-29T20:12:53.472Z,14.76
2023-03-29T20:15:28.876Z,15.14
2023-03-29T20:18:01.185Z,14.60
2023-03-29T20:20:35.867Z,14.31
2023-03-29T20:23:08.291Z,12.57
2023-03-29T20:25:41.319Z,11.99
2023-03-29T20:28:14.794Z,10.94
2023-03-29T20:30:51.449Z,10.89
2023-03-29T20:33:24.190Z,11.04
2023-03-29T20:35:56.685Z,11.49
2023-03-29T20:38:29.142Z,11.01
2023-03-29T20:41:01.730Z,11.58
2023-03-29T20:43:37.510Z,12.12
2023-03-29T20:46:18.559Z,11.43
2023-03-29T20:48:56.213Z,11.81
2023-03-29T20:51:30.562Z,12.01
2023-03-29T20:54:05.080Z,11.88
2023-03-29T20:56:42.533Z,11.22
2023-03-29T20:59:15.028Z,10.68
2023-03-29T21:01:50.532Z,10.89
2023-03-29T21:04:23.480Z,10.91
2023-03-29T21:06:56.361Z,11.34
2023-03-29T21:09:28.722Z,11.44
2023-03-29T21:12:00.993Z,10.94
2023-03-29T21:14:33.480Z,10.86
2023-03-29T21:17:09.510Z,10.34
2023-03-29T21:19:42.074Z,10.30
2023-03-29T21:22:14.874Z,10.05
2023-03-29T21:24:47.235Z,9.76
2023-03-29T21:27:19.573Z,9.86
2023-03-29T21:29:51.979Z,9.78
2023-03-29T21:32:26.855Z,9.97
2023-03-29T21:34:59.118Z,9.46
2023-03-29T21:37:31.478Z,9.54
2023-03-29T21:40:05.846Z,9.52
2023-03-29T21:42:38.837Z,9.57
2023-03-29T21:45:13.013Z,9.71
2023-03-29T21:47:47.803Z,9.89
2023-03-29T21:50:20.292Z,10.01
2023-03-29T21:52:52.534Z,9.80
2023-03-29T21:55:24.936Z,9.86
2023-03-29T21:57:57.262Z,9.65
2023-03-29T22:00:29.923Z,9.64
2023-03-29T22:03:04.890Z,9.35
2023-03-29T22:05:37.423Z,9.74
2023-03-29T22:08:10.594Z,9.56
2023-03-29T22:10:44.125Z,9.56
2023-03-29T22:13:16.899Z,9.94
2023-03-29T22:15:49.985Z,9.79
2023-03-29T22:18:24.812Z,9.46
2023-03-29T22:20:57.468Z,9.49
2023-03-29T22:23:29.639Z,9.15
2023-03-29T22:26:01.973Z,9.38
2023-03-29T22:28:34.178Z,9.12
2023-03-29T22:31:07.513Z,8.90
2023-03-29T22:33:44.012Z,8.73
2023-03-29T22:36:19.203Z,8.62
2023-03-29T22:38:51.853Z,8.61
2023-03-29T22:41:26.252Z,8.53
2023-03-29T22:44:01.257Z,8.18
2023-03-29T22:46:33.721Z,8.46
2023-03-29T22:49:08.910Z,8.07
2023-03-29T22:51:41.128Z,7.81
2023-03-29T22:54:13.387Z,8.02
2023-03-29T22:56:45.851Z,7.36
2023-03-29T22:59:18.611Z,7.81
2023-03-29T23:01:51.713Z,7.58
2023-03-29T23:04:26.704Z,7.55
2023-03-29T23:06:59.117Z,7.59
2023-03-29T23:09:31.506Z,7.26
2023-03-29T23:12:03.993Z,7.13
2023-03-29T23:14:37.674Z,7.47
2023-03-29T23:17:10.390Z,7.36
2023-03-29T23:19:45.214Z,7.59
2023-03-29T23:22:17.582Z,7.28
2023-03-29T23:24:50.166Z,7.59
2023-03-29T23:27:22.532Z,7.26
2023-03-29T23:29:55.613Z,7.46
2023-03-29T23:32:27.879Z,7.27
2023-03-29T23:35:04.579Z,7.41
2023-03-29T23:37:37.966Z,7.12
2023-03-29T23:40:13.975Z,7.09
2023-03-29T23:42:49.118Z,7.11
2023-03-29T23:45:23.377Z,7.07
2023-03-29T23:47:56.157Z,7.35
2023-03-29T23:50:31.409Z,6.84
2023-03-29T23:53:03.618Z,7.05
2023-03-29T23:55:36.159Z,7.09
2023-03-29T23:58:08.384Z,7.04
